createdAt,value
2023-12-14T00:01:26.948Z,324.17
2023-12-14T00:03:55.849Z,258.10
2023-12-14T00:06:24.277Z,553.40
2023-12-14T00:08:54.258Z,221.07
2023-12-14T00:11:22.762Z,375.38
2023-12-14T00:13:51.719Z,501.10
2023-12-14T00:16:20.032Z,516.17
2023-12-14T00:18:48.953Z,609.78
2023-12-14T00:21:17.321Z,698.50
2023-12-14T00:23:45.963Z,699.40
2023-12-14T00:26:16.144Z,585.28
2023-12-14T00:28:43.759Z,976.35
2023-12-14T00:31:12.157Z,615.17
2023-12-14T00:33:41.262Z,317.02
2023-12-14T00:36:10.308Z,431.00
2023-12-14T00:38:40.848Z,635.97
2023-12-14T00:41:09.401Z,600.55
2023-12-14T00:43:39.451Z,637.63
2023-12-14T00:46:07.789Z,653.58
2023-12-14T00:48:36.571Z,560.25
2023-12-14T00:51:05.343Z,647.60
2023-12-14T00:53:34.001Z,659.17
2023-12-14T00:56:02.360Z,738.55
2023-12-14T00:58:31.163Z,885.75
2023-12-14T01:01:00.836Z,934.55
2023-12-14T01:03:29.648Z,999.42
2023-12-14T01:05:58.255Z,896.97
2023-12-14T01:08:26.887Z,744.30
2023-12-14T01:10:55.353Z,845.30
2023-12-14T01:13:23.751Z,1003.70
2023-12-14T01:15:52.603Z,826.40
2023-12-14T01:18:22.482Z,794.53
2023-12-14T01:20:51.375Z,675.00
2023-12-14T01:23:19.731Z,440.67
2023-12-14T01:25:48.458Z,707.38
2023-12-14T01:28:16.825Z,753.38
2023-12-14T01:30:45.386Z,707.30
2023-12-14T01:33:14.104Z,790.38
2023-12-14T01:35:44.176Z,926.05
2023-12-14T01:38:12.554Z,783.22
2023-12-14T01:40:41.259Z,853.90
2023-12-14T01:43:11.431Z,814.28
2023-12-14T01:45:40.127Z,800.65
2023-12-14T01:48:08.627Z,710.38
2023-12-14T01:50:37.342Z,895.83
2023-12-14T01:53:07.255Z,791.00
2023-12-14T01:55:35.999Z,866.78
2023-12-14T01:58:04.277Z,878.80
2023-12-14T02:03:35.332Z,724.47
2023-12-14T02:06:04.083Z,596.75
2023-12-14T02:08:33.741Z,674.28
2023-12-14T02:11:02.592Z,675.08
2023-12-14T02:13:30.944Z,747.13
2023-12-14T02:15:59.488Z,751.58
2023-12-14T02:18:28.077Z,692.88
2023-12-14T02:20:56.831Z,770.20
2023-12-14T02:23:26.571Z,806.50
2023-12-14T02:25:55.253Z,651.78
2023-12-14T02:28:23.634Z,417.73
2023-12-14T02:30:52.242Z,262.35
2023-12-14T02:33:20.652Z,905.58
2023-12-14T02:35:49.403Z,536.22
2023-12-14T02:38:17.734Z,457.20
2023-12-14T02:40:48.569Z,643.70
2023-12-14T02:43:16.835Z,462.23
2023-12-14T02:45:45.429Z,659.67
2023-12-14T02:48:14.006Z,613.25
2023-12-14T02:50:42.553Z,246.00
2023-12-14T02:53:10.957Z,845.55
2023-12-14T02:55:39.717Z,588.53
2023-12-14T02:58:09.379Z,601.45
2023-12-14T03:00:38.025Z,506.98
2023-12-14T03:03:06.550Z,787.47
2023-12-14T03:05:35.289Z,447.17
2023-12-14T03:08:03.602Z,685.78
2023-12-14T03:10:32.470Z,460.25
2023-12-14T03:13:00.736Z,225.68
2023-12-14T03:15:30.712Z,690.85
2023-12-14T03:17:59.161Z,839.30
2023-12-14T03:20:27.834Z,741.97
2023-12-14T03:22:56.163Z,477.65
2023-12-14T03:25:24.872Z,665.42
2023-12-14T03:27:53.115Z,296.33
2023-12-14T03:30:21.698Z,786.45
2023-12-14T03:32:51.607Z,248.32
2023-12-14T03:35:20.366Z,248.20
2023-12-14T03:37:48.651Z,495.45
2023-12-14T03:40:17.595Z,546.67
2023-12-14T03:42:45.875Z,625.45
2023-12-14T03:45:14.690Z,490.85
2023-12-14T03:47:43.035Z,680.78
2023-12-14T03:50:14.795Z,509.70
2023-12-14T03:52:43.183Z,671.87
2023-12-14T03:55:12.236Z,690.20
2023-12-14T03:57:40.569Z,287.05
2023-12-14T04:00:12.666Z,677.40
2023-12-14T04:02:41.325Z,656.60
2023-12-14T04:05:10.789Z,479.30
2023-12-14T04:07:42.089Z,535.70
2023-12-14T04:10:11.777Z,444.80
2023-12-14T04:12:40.997Z,319.25
2023-12-14T04:15:10.944Z,504.80
2023-12-14T04:17:39.399Z,463.23
2023-12-14T04:20:09.825Z,410.92
2023-12-14T04:22:38.512Z,429.27
2023-12-14T04:25:09.590Z,636.92
2023-12-14T04:27:38.072Z,825.15
2023-12-14T04:30:11.594Z,739.85
2023-12-14T04:32:40.167Z,812.55
2023-12-14T04:35:09.984Z,820.88
2023-12-14T04:37:38.351Z,736.33
2023-12-14T04:40:09.888Z,696.20
2023-12-14T04:42:38.230Z,773.40
2023-12-14T04:45:10.089Z,583.03
2023-12-14T04:47:38.564Z,795.37
2023-12-14T04:50:08.352Z,702.80
2023-12-14T04:52:36.939Z,702.50
2023-12-14T04:55:06.460Z,627.10
2023-12-14T04:57:36.162Z,642.53
2023-12-14T05:00:05.354Z,544.13
2023-12-14T05:02:34.942Z,803.70
2023-12-14T05:05:03.778Z,864.90
2023-12-14T05:07:32.444Z,792.33
2023-12-14T05:10:01.000Z,793.50
2023-12-14T05:12:30.059Z,947.92
2023-12-14T05:15:00.086Z,925.70
2023-12-14T05:17:28.347Z,817.58
2023-12-14T05:19:57.234Z,725.42
2023-12-14T05:22:25.738Z,801.75
2023-12-14T05:24:54.400Z,534.10
2023-12-14T05:27:22.728Z,891.97
2023-12-14T05:29:51.568Z,610.45
2023-12-14T05:32:21.264Z,722.33
2023-12-14T05:34:50.005Z,428.40
2023-12-14T05:37:18.520Z,403.58
2023-12-14T05:39:47.189Z,370.27
2023-12-14T05:42:18.458Z,712.38
2023-12-14T05:44:47.340Z,511.13
2023-12-14T05:47:15.854Z,507.25
2023-12-14T05:49:46.553Z,586.13
2023-12-14T05:52:14.999Z,508.80
2023-12-14T05:54:43.632Z,543.80
2023-12-14T05:57:14.049Z,661.22
2023-12-14T05:59:42.820Z,555.45
2023-12-14T06:02:11.288Z,345.38
2023-12-14T06:04:41.455Z,318.73
2023-12-14T06:07:12.386Z,681.47
2023-12-14T06:09:42.254Z,747.13
2023-12-14T06:12:10.747Z,326.38
2023-12-14T06:14:39.253Z,372.60
2023-12-14T06:17:07.631Z,393.15
2023-12-14T06:19:36.593Z,486.35
2023-12-14T06:22:05.103Z,628.72
2023-12-14T06:24:35.160Z,686.67
2023-12-14T06:27:04.766Z,756.38
2023-12-14T06:29:33.405Z,636.22
2023-12-14T06:32:01.768Z,487.33
2023-12-14T06:34:30.456Z,673.63
2023-12-14T06:37:00.961Z,274.98
2023-12-14T06:39:29.637Z,571.95
2023-12-14T06:41:59.462Z,500.48
2023-12-14T06:44:28.856Z,411.90
2023-12-14T06:46:59.222Z,459.38
2023-12-14T06:49:28.283Z,579.35
2023-12-14T06:51:56.652Z,524.35
2023-12-14T06:54:25.756Z,712.85
2023-12-14T06:56:54.023Z,750.95
2023-12-14T06:59:24.112Z,918.50
2023-12-14T07:01:53.137Z,724.78
2023-12-14T07:04:21.808Z,471.90
2023-12-14T07:06:53.531Z,595.28
2023-12-14T07:09:22.284Z,558.78
2023-12-14T07:11:50.543Z,730.75
2023-12-14T07:14:20.597Z,596.03
2023-12-14T07:16:51.395Z,615.58
2023-12-14T07:19:20.006Z,761.63
2023-12-14T07:21:48.343Z,716.10
2023-12-14T07:24:17.411Z,612.50
2023-12-14T07:26:45.728Z,756.65
2023-12-14T07:29:14.304Z,496.42
2023-12-14T07:31:42.920Z,648.50
2023-12-14T07:34:13.646Z,466.02
2023-12-14T07:36:41.983Z,610.00
2023-12-14T07:39:11.146Z,732.10
2023-12-14T07:41:39.412Z,592.25
2023-12-14T07:44:08.193Z,929.55
2023-12-14T07:46:37.884Z,816.63
2023-12-14T07:49:06.601Z,858.65
2023-12-14T07:51:36.343Z,720.58
2023-12-14T07:54:05.701Z,1081.95
2023-12-14T07:56:34.421Z,939.65
2023-12-14T07:59:04.502Z,856.20
2023-12-14T08:01:32.905Z,665.70
2023-12-14T08:04:01.942Z,569.72
2023-12-14T08:06:30.322Z,741.47
2023-12-14T08:09:00.498Z,910.10
2023-12-14T08:11:29.805Z,568.10
2023-12-14T08:13:58.515Z,666.80
2023-12-14T08:16:26.984Z,643.78
2023-12-14T08:18:55.596Z,443.52
2023-12-14T08:21:23.888Z,683.28
2023-12-14T08:23:52.639Z,876.28
2023-12-14T08:26:22.585Z,392.17
2023-12-14T08:28:51.290Z,717.95
2023-12-14T08:31:19.677Z,747.80
2023-12-14T08:33:50.546Z,579.35
2023-12-14T08:36:19.837Z,561.40
2023-12-14T08:38:50.269Z,716.97
2023-12-14T08:41:18.635Z,700.85
2023-12-14T08:43:49.020Z,680.92
2023-12-14T08:46:17.745Z,468.05
2023-12-14T08:48:46.329Z,631.63
2023-12-14T08:51:14.653Z,593.67
2023-12-14T08:53:44.429Z,678.92
2023-12-14T08:56:12.781Z,538.05
2023-12-14T08:58:41.441Z,326.85
2023-12-14T09:01:11.312Z,335.10
2023-12-14T09:03:40.052Z,366.73
2023-12-14T09:06:08.843Z,453.50
2023-12-14T09:08:37.687Z,258.40
2023-12-14T09:11:06.313Z,239.98
2023-12-14T09:13:35.182Z,259.58
2023-12-14T09:16:03.745Z,237.43
2023-12-14T09:18:34.621Z,342.50
2023-12-14T09:21:03.035Z,224.40
2023-12-14T09:23:31.765Z,269.90
2023-12-14T09:26:00.390Z,238.25
2023-12-14T09:28:29.155Z,182.52
2023-12-14T09:30:57.711Z,281.05
2023-12-14T09:33:26.662Z,200.65
2023-12-14T09:35:56.480Z,222.43
2023-12-14T09:38:25.274Z,278.05
2023-12-14T09:40:53.593Z,267.48
2023-12-14T09:43:24.616Z,191.77
2023-12-14T09:45:53.923Z,157.15
2023-12-14T09:48:23.616Z,131.73
2023-12-14T09:50:51.986Z,130.07
2023-12-14T09:53:22.420Z,118.00
2023-12-14T09:55:50.797Z,129.38
2023-12-14T09:58:19.371Z,115.45
2023-12-14T10:00:47.895Z,115.78
2023-12-14T10:03:21.224Z,116.95
2023-12-14T10:05:50.221Z,109.03
2023-12-14T10:08:19.588Z,99.88
2023-12-14T10:10:52.502Z,85.22
2023-12-14T10:13:21.513Z,86.30
2023-12-14T10:15:50.710Z,81.55
2023-12-14T10:18:25.377Z,104.97
2023-12-14T10:20:54.270Z,112.03
2023-12-14T10:23:23.101Z,106.30
2023-12-14T10:25:52.793Z,113.65
2023-12-14T10:28:21.440Z,102.68
2023-12-14T10:30:49.960Z,107.75
2023-12-14T10:33:18.786Z,98.68
2023-12-14T10:35:48.500Z,99.65
2023-12-14T10:38:18.434Z,96.03
2023-12-14T10:40:47.520Z,96.47
2023-12-14T10:43:42.558Z,94.32
2023-12-14T10:46:08.923Z,79.72
2023-12-14T10:48:38.770Z,76.78
2023-12-14T10:51:09.290Z,83.43
2023-12-14T10:53:38.266Z,85.30
2023-12-14T10:56:10.876Z,95.05
2023-12-14T10:58:50.898Z,84.13
2023-12-14T11:01:21.479Z,76.18
2023-12-14T11:03:51.050Z,78.63
2023-12-14T11:06:34.744Z,82.55
2023-12-14T11:09:08.188Z,83.55
2023-12-14T11:11:45.124Z,95.78
2023-12-14T11:14:21.389Z,92.80
2023-12-14T11:16:50.773Z,93.25
2023-12-14T11:19:31.110Z,108.05
2023-12-14T11:22:13.874Z,102.28
2023-12-14T11:24:44.862Z,95.32
2023-12-14T11:27:14.465Z,99.72
2023-12-14T11:29:44.808Z,89.53
2023-12-14T11:32:13.250Z,87.82
2023-12-14T11:34:42.136Z,81.22
2023-12-14T11:37:10.441Z,89.18
2023-12-14T11:39:39.790Z,79.85
2023-12-14T11:42:10.729Z,77.57
2023-12-14T11:44:40.200Z,82.07
2023-12-14T11:47:10.791Z,77.03
2023-12-14T11:49:39.352Z,79.22
2023-12-14T11:52:07.735Z,82.95
2023-12-14T11:54:36.372Z,81.55
2023-12-14T11:57:05.171Z,75.32
2023-12-14T11:59:34.425Z,83.63
2023-12-14T12:02:04.014Z,88.53
2023-12-14T12:04:34.222Z,83.55
2023-12-14T12:07:04.881Z,89.07
2023-12-14T12:09:37.559Z,74.45
2023-12-14T12:12:08.756Z,77.40
2023-12-14T12:14:37.924Z,81.80
2023-12-14T12:17:06.975Z,88.85
2023-12-14T12:19:39.206Z,111.13
2023-12-14T12:22:07.615Z,96.63
2023-12-14T12:24:36.906Z,87.30
2023-12-14T12:27:06.157Z,93.18
2023-12-14T12:29:34.713Z,87.35
2023-12-14T12:32:03.202Z,74.35
2023-12-14T12:34:31.855Z,73.82
2023-12-14T12:37:01.780Z,73.72
2023-12-14T12:39:30.659Z,79.32
2023-12-14T12:41:58.962Z,75.07
2023-12-14T12:44:27.561Z,67.60
2023-12-14T12:47:05.201Z,79.55
2023-12-14T12:49:40.652Z,72.53
2023-12-14T12:52:10.497Z,79.47
2023-12-14T12:54:39.182Z,65.13
2023-12-14T12:57:07.785Z,67.40
2023-12-14T12:59:36.350Z,70.13
2023-12-14T13:02:04.721Z,71.78
2023-12-14T13:04:33.969Z,67.22
2023-12-14T13:07:05.464Z,76.78
2023-12-14T13:09:35.597Z,71.57
2023-12-14T13:12:05.363Z,72.18
2023-12-14T13:14:33.948Z,75.78
2023-12-14T13:17:02.536Z,78.82
2023-12-14T13:19:31.169Z,79.68
2023-12-14T13:22:00.881Z,86.32
2023-12-14T13:24:30.686Z,86.72
2023-12-14T13:27:00.362Z,87.95
2023-12-14T13:29:28.937Z,85.32
2023-12-14T13:31:57.632Z,115.15
2023-12-14T13:34:26.206Z,115.82
2023-12-14T13:36:54.474Z,111.20
2023-12-14T13:39:23.956Z,101.47
2023-12-14T13:41:52.246Z,91.70
2023-12-14T13:44:22.429Z,87.80
2023-12-14T13:46:50.806Z,84.32
2023-12-14T13:49:19.530Z,94.57
2023-12-14T13:51:47.794Z,87.70
2023-12-14T13:54:16.594Z,84.50
2023-12-14T13:56:44.877Z,88.88
2023-12-14T13:59:13.473Z,90.57
2023-12-14T14:01:43.271Z,101.22
2023-12-14T14:04:12.013Z,103.38
2023-12-14T14:06:40.383Z,107.95
2023-12-14T14:09:09.367Z,123.47
2023-12-14T14:11:37.957Z,129.15
2023-12-14T14:14:06.860Z,144.75
2023-12-14T14:16:35.163Z,158.55
2023-12-14T14:19:05.783Z,152.45
2023-12-14T14:21:34.175Z,134.75
2023-12-14T14:24:02.708Z,150.95
2023-12-14T14:26:31.054Z,164.82
2023-12-14T14:29:02.754Z,173.13
2023-12-14T14:31:33.917Z,173.40
2023-12-14T14:34:04.295Z,175.23
2023-12-14T14:36:32.688Z,174.80
2023-12-14T14:39:01.299Z,172.77
2023-12-14T14:41:29.862Z,183.18
2023-12-14T14:43:59.143Z,189.95
2023-12-14T14:46:27.476Z,241.60
2023-12-14T14:48:56.369Z,167.20
2023-12-14T14:51:26.660Z,213.13
2023-12-14T14:53:55.461Z,223.75
2023-12-14T14:56:24.091Z,315.25
2023-12-14T14:58:52.881Z,422.13
2023-12-14T15:01:21.246Z,438.92
2023-12-14T15:03:49.943Z,449.88
2023-12-14T15:06:18.511Z,227.80
2023-12-14T15:08:48.550Z,294.65
2023-12-14T15:11:16.922Z,284.27
2023-12-14T15:13:45.688Z,257.85
2023-12-14T15:16:14.173Z,276.60
2023-12-14T15:18:43.440Z,222.20
2023-12-14T15:21:14.819Z,256.70
2023-12-14T15:23:47.867Z,330.00
2023-12-14T15:26:17.830Z,493.27
2023-12-14T15:28:46.716Z,279.90
2023-12-14T15:31:15.070Z,386.65
2023-12-14T15:33:43.735Z,341.17
2023-12-14T15:36:12.229Z,308.30
2023-12-14T15:38:42.273Z,313.27
2023-12-14T15:41:10.663Z,253.40
2023-12-14T15:43:40.837Z,476.20
2023-12-14T15:46:09.299Z,298.52
2023-12-14T15:48:38.129Z,322.50
2023-12-14T15:51:10.120Z,215.35
2023-12-14T15:53:39.357Z,274.50
2023-12-14T15:56:08.993Z,249.15
2023-12-14T15:58:37.648Z,287.05
2023-12-14T16:01:07.804Z,256.33
2023-12-14T16:03:36.450Z,354.90
2023-12-14T16:06:05.127Z,256.65
2023-12-14T16:08:33.953Z,267.77
2023-12-14T16:11:02.724Z,285.67
2023-12-14T16:13:31.309Z,301.95
2023-12-14T16:15:59.579Z,362.63
2023-12-14T16:18:29.759Z,321.40
2023-12-14T16:20:58.790Z,353.90
2023-12-14T16:23:27.598Z,337.27
2023-12-14T16:25:58.733Z,279.30
2023-12-14T16:28:27.858Z,271.30
2023-12-14T16:30:56.453Z,231.43
2023-12-14T16:33:25.967Z,259.77
2023-12-14T16:35:55.775Z,242.80
2023-12-14T16:38:24.538Z,284.08
2023-12-14T16:40:52.792Z,302.02
2023-12-14T16:43:22.807Z,274.75
2023-12-14T16:45:54.562Z,292.83
2023-12-14T16:48:23.448Z,288.65
2023-12-14T16:50:54.530Z,421.35
2023-12-14T16:53:24.730Z,340.55
2023-12-14T16:55:59.540Z,361.95
2023-12-14T16:58:28.527Z,296.77
2023-12-14T17:00:57.426Z,344.45
2023-12-14T17:03:26.009Z,320.70
2023-12-14T17:05:56.521Z,230.48
2023-12-14T17:08:28.810Z,244.35
2023-12-14T17:10:57.646Z,295.95
2023-12-14T17:13:26.462Z,263.40
2023-12-14T17:15:54.708Z,314.67
2023-12-14T17:18:23.410Z,273.85
2023-12-14T17:20:51.942Z,274.92
2023-12-14T17:23:20.563Z,251.27
2023-12-14T17:25:50.268Z,217.52
2023-12-14T17:28:19.104Z,273.92
2023-12-14T17:30:47.509Z,231.18
2023-12-14T17:33:16.776Z,346.83
2023-12-14T17:35:45.186Z,271.80
2023-12-14T17:38:13.824Z,325.80
2023-12-14T17:40:42.222Z,268.50
2023-12-14T17:43:12.407Z,286.10
2023-12-14T17:45:40.722Z,271.00
2023-12-14T17:48:09.563Z,475.40
2023-12-14T17:50:37.874Z,242.45
2023-12-14T17:53:06.590Z,202.63
2023-12-14T17:55:34.898Z,206.15
2023-12-14T17:58:03.770Z,223.40
2023-12-14T18:00:33.468Z,257.98
2023-12-14T18:03:05.038Z,295.63
2023-12-14T18:05:33.752Z,255.25
2023-12-14T18:08:02.600Z,268.08
2023-12-14T18:10:31.726Z,367.40
2023-12-14T18:13:03.685Z,342.23
2023-12-14T18:15:36.012Z,239.60
2023-12-14T18:18:05.353Z,339.08
2023-12-14T18:20:33.964Z,534.60
2023-12-14T18:23:02.804Z,388.58
2023-12-14T18:25:31.447Z,292.50
2023-12-14T18:28:03.046Z,394.15
2023-12-14T18:30:31.623Z,514.63
2023-12-14T18:33:01.972Z,306.15
2023-12-14T18:35:31.230Z,515.08
2023-12-14T18:38:00.409Z,478.13
2023-12-14T18:40:29.673Z,506.50
2023-12-14T18:42:59.320Z,553.05
2023-12-14T18:45:27.983Z,324.73
2023-12-14T18:47:56.892Z,355.23
2023-12-14T18:50:26.821Z,477.13
2023-12-14T18:52:58.054Z,478.88
2023-12-14T18:55:26.882Z,411.40
2023-12-14T18:57:55.611Z,467.13
2023-12-14T19:00:24.474Z,369.75
2023-12-14T19:02:53.123Z,259.05
2023-12-14T19:05:25.185Z,334.38
2023-12-14T19:07:55.517Z,398.17
2023-12-14T19:10:23.938Z,388.10
2023-12-14T19:12:52.698Z,527.30
2023-12-14T19:15:20.938Z,297.02
2023-12-14T19:17:49.680Z,466.08
2023-12-14T19:20:18.123Z,321.77
2023-12-14T19:22:46.813Z,286.27
2023-12-14T19:25:16.547Z,322.70
2023-12-14T19:27:52.730Z,319.60
2023-12-14T19:30:21.814Z,314.05
2023-12-14T19:32:53.139Z,275.88
2023-12-14T19:35:21.789Z,311.73
2023-12-14T19:37:50.687Z,308.50
2023-12-14T19:40:21.594Z,245.57
2023-12-14T19:42:50.786Z,252.00
2023-12-14T19:45:19.294Z,282.38
2023-12-14T19:47:47.929Z,228.15
2023-12-14T19:50:16.638Z,235.15
2023-12-14T19:52:45.647Z,228.00
2023-12-14T19:55:15.310Z,225.05
2023-12-14T19:57:45.563Z,225.32
2023-12-14T20:00:16.181Z,231.77
2023-12-14T20:02:45.040Z,242.32
2023-12-14T20:05:13.577Z,214.10
2023-12-14T20:07:42.365Z,229.40
2023-12-14T20:10:11.115Z,208.40
2023-12-14T20:12:39.722Z,245.43
2023-12-14T20:15:13.529Z,227.15
2023-12-14T20:17:42.632Z,231.95
2023-12-14T20:20:12.032Z,232.68
2023-12-14T20:22:41.427Z,247.25
2023-12-14T20:25:10.658Z,221.23
2023-12-14T20:27:39.979Z,247.15
2023-12-14T20:30:10.722Z,216.88
2023-12-14T20:32:39.513Z,211.52
2023-12-14T20:35:09.331Z,225.20
2023-12-14T20:37:38.185Z,215.77
2023-12-14T20:40:13.742Z,224.25
2023-12-14T20:42:42.484Z,223.18
2023-12-14T20:45:13.275Z,234.27
2023-12-14T20:47:42.409Z,184.25
2023-12-14T20:50:11.272Z,196.48
2023-12-14T20:52:42.735Z,189.93
2023-12-14T20:55:11.304Z,204.70
2023-12-14T20:57:40.202Z,171.20
2023-12-14T21:00:10.020Z,169.30
2023-12-14T21:02:41.108Z,171.23
2023-12-14T21:05:09.714Z,161.27
2023-12-14T21:07:38.742Z,159.80
2023-12-14T21:10:07.780Z,173.48
2023-12-14T21:12:37.779Z,179.18
2023-12-14T21:15:06.639Z,173.38
2023-12-14T21:17:37.457Z,197.52
2023-12-14T21:20:08.644Z,173.35
2023-12-14T21:22:37.466Z,193.52
2023-12-14T21:25:06.541Z,176.95
2023-12-14T21:27:49.776Z,175.13
2023-12-14T21:30:18.396Z,166.57
2023-12-14T21:32:47.827Z,158.50
2023-12-14T21:35:17.879Z,164.95
2023-12-14T21:37:46.745Z,177.38
2023-12-14T21:40:16.094Z,153.98
2023-12-14T21:42:44.835Z,133.82
2023-12-14T21:45:13.345Z,123.93
2023-12-14T21:47:42.273Z,125.95
2023-12-14T21:50:11.549Z,146.40
2023-12-14T21:52:41.993Z,134.27
2023-12-14T21:55:10.548Z,121.90
2023-12-14T21:57:39.398Z,128.80
2023-12-14T22:00:09.198Z,145.57
2023-12-14T22:02:37.908Z,132.05
2023-12-14T22:05:07.150Z,134.75
2023-12-14T22:07:36.238Z,130.35
2023-12-14T22:10:06.804Z,135.77
2023-12-14T22:12:35.754Z,130.00
2023-12-14T22:15:04.121Z,130.13
2023-12-14T22:17:32.757Z,101.28
2023-12-14T22:20:01.214Z,77.70
2023-12-14T22:22:29.826Z,77.75
2023-12-14T22:24:58.100Z,63.03
2023-12-14T22:27:28.195Z,64.45
2023-12-14T22:29:56.485Z,62.13
2023-12-14T22:32:25.095Z,61.00
2023-12-14T22:34:53.569Z,69.82
2023-12-14T22:37:22.113Z,66.65
2023-12-14T22:39:50.519Z,59.88
2023-12-14T22:42:19.897Z,61.40
2023-12-14T22:44:49.664Z,64.25
2023-12-14T22:47:18.432Z,51.30
2023-12-14T22:49:47.086Z,52.50
2023-12-14T22:52:15.648Z,57.60
2023-12-14T22:54:44.050Z,57.70
2023-12-14T22:57:13.257Z,62.47
2023-12-14T22:59:41.594Z,59.42
2023-12-14T23:02:11.684Z,59.00
2023-12-14T23:04:40.399Z,58.72
2023-12-14T23:07:09.090Z,67.38
2023-12-14T23:09:37.563Z,71.28
2023-12-14T23:12:06.420Z,63.30
2023-12-14T23:14:35.203Z,66.68
2023-12-14T23:17:04.096Z,67.32
2023-12-14T23:19:33.831Z,64.40
2023-12-14T23:22:02.575Z,69.72
2023-12-14T23:24:30.959Z,71.65
2023-12-14T23:26:59.508Z,72.97
2023-12-14T23:29:27.878Z,69.07
2023-12-14T23:31:56.749Z,76.43
2023-12-14T23:34:25.112Z,75.20
2023-12-14T23:36:55.196Z,73.45
2023-12-14T23:39:23.788Z,80.03
2023-12-14T23:41:52.467Z,70.50
2023-12-14T23:44:20.798Z,72.70
2023-12-14T23:46:49.658Z,70.97
2023-12-14T23:49:18.007Z,74.38
2023-12-14T23:51:46.590Z,79.70
2023-12-14T23:54:16.807Z,73.15
2023-12-14T23:56:45.468Z,68.28
2023-12-14T23:59:13.809Z,77.82
